Time;durP1;ratioP1;P1;durP2;ratioP2;P2;SDS_P1;SDS_P2;PMS_P1;PMS_P2;Temp;Humidity;BMP_temperature;BMP_pressure;BME280_temperature;BME280_humidity;BME280_pressure;Samples;Min_cycle;Max_cycle;Signal;HPM_P1;HPM_P2
2022/04/20 00:01:04;;;;;;;50.63;21.27;;;;;;;0.81;100.00;96759.28;4988418;28;20465;-59
2022/04/20 00:03:31;;;;;;;49.58;20.98;;;;;;;0.68;100.00;96727.53;4985210;28;20054;-62
2022/04/20 00:05:58;;;;;;;31.98;15.45;;;;;;;1.17;100.00;96834.34;4984249;28;20054;-59
2022/04/20 00:08:25;;;;;;;29.42;12.73;;;;;;;0.86;100.00;96800.88;4984786;28;20054;-61
2022/04/20 00:10:51;;;;;;;25.00;11.18;;;;;;;0.40;100.00;96726.91;4999402;28;20061;-58
2022/04/20 00:13:18;;;;;;;20.45;11.10;;;;;;;1.09;100.00;96846.03;4999504;28;20058;-58
2022/04/20 00:15:45;;;;;;;20.92;10.30;;;;;;;0.69;100.00;96789.91;4999145;28;20058;-61
2022/04/20 00:18:12;;;;;;;18.20;9.10;;;;;;;0.71;100.00;96793.09;4999441;28;20602;-61
2022/04/20 00:20:38;;;;;;;19.70;10.15;;;;;;;1.14;100.00;96840.44;4998861;28;20046;-57
2022/04/20 00:23:05;;;;;;;17.55;8.98;;;;;;;0.95;100.00;96804.44;4999519;28;20622;-61
2022/04/20 00:25:32;;;;;;;16.20;7.93;;;;;;;1.28;100.00;96838.41;4984274;28;20051;-61
2022/04/20 00:27:58;;;;;;;15.43;8.23;;;;;;;0.46;100.00;96717.47;4999228;28;20055;-57
2022/04/20 00:30:25;;;;;;;15.32;8.68;;;;;;;1.30;100.00;96852.53;4984324;28;20058;-61
2022/04/20 00:32:52;;;;;;;14.55;8.23;;;;;;;0.90;100.00;96796.38;4988051;28;20056;-59
2022/04/20 00:35:19;;;;;;;13.93;7.95;;;;;;;1.27;100.00;96855.09;5003960;28;20050;-58
2022/04/20 00:37:45;;;;;;;18.65;8.80;;;;;;;0.73;100.00;96762.78;5003702;28;20050;-61
2022/04/20 00:40:12;;;;;;;18.50;8.43;;;;;;;1.10;100.00;96839.47;5003991;28;20054;-61
2022/04/20 00:42:40;;;;;;;17.45;8.57;;;;;;;0.72;100.00;96792.00;5003645;28;20057;-61
2022/04/20 00:45:09;;;;;;;18.10;9.02;;;;;;;1.21;100.00;96851.72;5003628;28;20057;-57
2022/04/20 00:47:37;;;;;;;19.00;7.78;;;;;;;1.19;100.00;96859.41;5003688;28;20053;-61
2022/04/20 00:50:07;;;;;;;15.32;8.15;;;;;;;1.19;100.00;96836.75;5003584;28;20038;-57
2022/04/20 00:52:34;;;;;;;16.00;7.53;;;;;;;1.04;100.00;96840.69;5004161;28;20058;-60
2022/04/20 00:55:21;;;;;;;19.20;9.63;;;;;;;1.05;100.00;96858.69;5003746;28;20046;-60
2022/04/20 00:57:47;;;;;;;23.05;9.90;;;;;;;0.92;100.00;96820.59;5004072;28;20058;-61
2022/04/20 01:00:14;;;;;;;18.05;9.55;;;;;;;1.19;100.00;96845.75;5003496;28;20057;-60
2022/04/20 01:02:41;;;;;;;17.30;8.23;;;;;;;1.05;100.00;96825.97;5001689;28;20077;-58
2022/04/20 01:05:08;;;;;;;14.90;8.32;;;;;;;-0.12;100.00;96659.69;5003400;28;20492;-61
2022/04/20 01:07:36;;;;;;;14.80;7.30;;;;;;;0.65;99.79;96788.91;5003836;28;20062;-62
2022/04/20 01:10:04;;;;;;;12.43;7.07;;;;;;;0.93;99.97;96844.81;5003902;28;20050;-58
2022/04/20 01:12:31;;;;;;;15.68;7.43;;;;;;;0.86;100.00;96843.66;5007251;28;20068;-61
2022/04/20 01:14:57;;;;;;;24.48;9.73;;;;;;;0.88;100.00;96852.34;5007137;28;20064;-60
2022/04/20 01:17:24;;;;;;;21.73;9.18;;;;;;;0.84;100.00;96835.00;5007186;28;20070;-60
2022/04/20 01:19:51;;;;;;;16.63;8.25;;;;;;;0.88;100.00;96831.34;5007485;28;20057;-61
2022/04/20 01:22:18;;;;;;;20.00;10.00;;;;;;;-0.60;100.00;96599.69;5007359;28;20151;-58
2022/04/20 01:24:45;;;;;;;20.08;10.45;;;;;;;0.25;100.00;96740.13;5007378;28;20054;-61
2022/04/20 01:27:12;;;;;;;21.77;9.75;;;;;;;0.88;100.00;96831.34;5007339;28;20057;-60
2022/04/20 01:29:39;;;;;;;21.83;10.55;;;;;;;0.48;100.00;96750.66;5007555;28;20053;-61
2022/04/20 01:32:06;;;;;;;21.38;10.35;;;;;;;1.04;100.00;96829.00;5007037;28;20061;-61
2022/04/20 01:34:33;;;;;;;26.40;10.60;;;;;;;0.73;100.00;96785.41;4989378;28;20430;-57
2022/04/20 01:37:00;;;;;;;23.83;11.55;;;;;;;0.99;100.00;96827.22;5002264;28;20051;-61
2022/04/20 01:39:26;;;;;;;29.65;12.02;;;;;;;-1.24;100.00;96474.38;4987058;28;20057;-59
2022/04/20 01:41:53;;;;;;;26.55;12.00;;;;;;;1.07;100.00;96825.66;5001640;28;20047;-61
2022/04/20 01:44:20;;;;;;;21.88;9.77;;;;;;;0.71;99.11;96749.47;4986871;28;20057;-59
2022/04/20 01:46:46;;;;;;;19.52;9.38;;;;;;;0.79;97.82;96778.69;5001753;28;20054;-57
2022/04/20 01:49:13;;;;;;;19.73;8.82;;;;;;;1.07;98.02;96834.66;4987233;28;20382;-61
2022/04/20 01:51:52;;;;;;;14.70;6.80;;;;;;;0.79;98.18;96822.31;4987275;28;20512;-60
2022/04/20 01:54:22;;;;;;;17.15;7.63;;;;;;;0.77;99.11;96802.75;5001978;28;20073;-60
2022/04/20 01:56:50;;;;;;;13.00;7.47;;;;;;;0.50;99.39;96753.91;4987141;28;20046;-57
2022/04/20 01:59:17;;;;;;;18.42;10.18;;;;;;;0.77;100.00;96802.75;4986510;28;20535;-58
2022/04/20 02:04:29;;;;;;;23.30;12.43;;;;;;;0.86;100.00;96827.31;4967688;28;20047;-57
2022/04/20 02:06:56;;;;;;;20.20;11.40;;;;;;;0.53;100.00;96764.16;4967548;28;20059;-58
2022/04/20 02:09:24;;;;;;;26.58;11.73;;;;;;;0.89;100.00;96822.03;4982480;28;20062;-61
2022/04/20 02:11:51;;;;;;;26.45;12.43;;;;;;;0.93;99.96;96823.00;4981984;28;20054;-58
2022/04/20 02:14:18;;;;;;;22.30;11.10;;;;;;;0.94;100.00;96812.91;4981899;28;20501;-61
2022/04/20 02:16:44;;;;;;;32.03;16.70;;;;;;;0.89;100.00;96819.31;4967014;28;20065;-61
2022/04/20 02:19:11;;;;;;;47.55;23.55;;;;;;;1.04;98.41;96818.09;4967234;28;20593;-61
2022/04/20 02:21:38;;;;;;;48.72;23.80;;;;;;;1.01;98.47;96814.06;4981562;28;20278;-58
2022/04/20 02:24:05;;;;;;;29.92;15.38;;;;;;;0.91;98.16;96825.28;4982148;28;20059;-57
2022/04/20 02:26:31;;;;;;;26.85;12.90;;;;;;;0.63;100.00;96782.16;4967118;28;20066;-59
2022/04/20 02:28:58;;;;;;;28.10;13.65;;;;;;;0.87;100.00;96824.28;4966741;28;20073;-61
2022/04/20 02:31:25;;;;;;;36.53;16.70;;;;;;;0.92;100.00;96820.59;4981303;28;20054;-57
2022/04/20 02:33:51;;;;;;;33.58;13.88;;;;;;;1.09;100.00;96824.22;4992752;28;20057;-57
2022/04/20 02:36:18;;;;;;;24.75;11.13;;;;;;;1.13;99.87;96833.38;4986599;28;20107;-58
2022/04/20 02:38:45;;;;;;;35.22;11.88;;;;;;;0.74;99.87;96772.59;4984943;28;20062;-59
2022/04/20 02:41:12;;;;;;;30.45;12.13;;;;;;;0.88;100.00;96808.72;4985925;28;20073;-61
2022/04/20 02:43:38;;;;;;;28.83;12.32;;;;;;;0.81;100.00;96830.97;4986003;28;20055;-62
2022/04/20 02:46:06;;;;;;;31.75;12.57;;;;;;;0.90;100.00;96815.47;4984238;28;20062;-59
2022/04/20 02:48:33;;;;;;;21.35;10.73;;;;;;;0.47;99.32;96759.16;4986290;28;20137;-62
2022/04/20 02:50:59;;;;;;;18.77;9.05;;;;;;;0.72;100.00;96811.06;4986369;28;20525;-62
2022/04/20 02:53:26;;;;;;;38.35;13.68;;;;;;;0.29;100.00;96741.91;4986173;28;20061;-58
2022/04/20 02:55:52;;;;;;;33.35;13.25;;;;;;;0.81;100.00;96817.34;4986174;28;20560;-57
2022/04/20 02:58:19;;;;;;;22.05;9.82;;;;;;;0.78;100.00;96814.44;4984717;28;20085;-62
2022/04/20 03:00:46;;;;;;;14.23;7.60;;;;;;;0.47;99.89;96890.75;4985763;28;20054;-61
2022/04/20 03:03:13;;;;;;;17.73;8.60;;;;;;;-0.02;100.00;96771.03;4985928;28;20475;-59
2022/04/20 03:05:40;;;;;;;15.77;8.25;;;;;;;0.13;100.00;96825.09;4985486;28;20054;-59
2022/04/20 03:08:06;;;;;;;16.55;8.23;;;;;;;-0.71;100.00;96690.00;4984225;28;20496;-58
2022/04/20 03:10:33;;;;;;;18.98;8.82;;;;;;;-0.18;100.00;96765.16;4985360;28;20069;-62
2022/04/20 03:13:00;;;;;;;17.02;8.25;;;;;;;0.26;100.00;96818.78;4984196;28;20053;-62
2022/04/20 03:15:26;;;;;;;18.80;9.00;;;;;;;0.09;100.00;96823.31;4984371;28;20089;-60
2022/04/20 03:17:53;;;;;;;21.20;9.45;;;;;;;0.09;100.00;96829.56;4985343;28;20058;-58
2022/04/20 03:20:20;;;;;;;19.02;9.18;;;;;;;0.17;100.00;96826.09;4985108;28;20050;-61
2022/04/20 03:22:46;;;;;;;17.60;8.63;;;;;;;0.30;100.00;96830.66;4985001;28;20520;-60
2022/04/20 03:25:13;;;;;;;16.15;8.32;;;;;;;0.32;100.00;96839.34;4984999;28;20054;-62
2022/04/20 03:27:39;;;;;;;17.13;10.23;;;;;;;0.38;100.00;96843.53;4985211;28;20054;-60
2022/04/20 03:30:07;;;;;;;21.73;12.30;;;;;;;0.44;100.00;96845.06;4984815;28;20101;-58
2022/04/20 03:32:35;;;;;;;20.40;10.15;;;;;;;0.49;100.00;96842.16;4983928;28;20077;-57
2022/04/20 03:35:02;;;;;;;22.88;10.95;;;;;;;0.60;100.00;96835.34;4965722;28;20047;-61
2022/04/20 03:37:30;;;;;;;17.95;9.43;;;;;;;0.57;100.00;96838.69;4966091;28;20146;-60
2022/04/20 03:39:58;;;;;;;19.35;9.13;;;;;;;0.49;100.00;96844.91;4963923;28;20156;-57
2022/04/20 03:42:26;;;;;;;17.05;9.82;;;;;;;0.48;100.00;96848.75;4965633;28;20084;-61
2022/04/20 03:44:53;;;;;;;27.65;9.90;;;;;;;0.62;100.00;96846.75;4965108;28;20061;-61
2022/04/20 03:47:20;;;;;;;47.92;16.48;;;;;;;0.52;100.00;96848.94;4965665;28;20059;-61
2022/04/20 03:49:46;;;;;;;74.63;24.55;;;;;;;0.62;99.30;96854.09;4965542;28;20082;-58
2022/04/20 03:52:13;;;;;;;98.10;30.23;;;;;;;0.35;98.61;96811.47;4965099;28;20325;-62
2022/04/20 03:54:40;;;;;;;92.63;29.70;;;;;;;0.58;99.00;96853.94;4963906;28;20058;-63
2022/04/20 03:57:10;;;;;;;113.22;33.38;;;;;;;0.26;100.00;96807.91;4965743;28;20065;-62
2022/04/20 03:59:38;;;;;;;156.85;46.78;;;;;;;0.07;100.00;96761.00;4965324;28;20097;-59
2022/04/20 04:02:06;;;;;;;144.95;42.50;;;;;;;0.84;100.00;96863.06;4995540;28;20054;-61
2022/04/20 04:04:33;;;;;;;154.57;45.55;;;;;;;0.99;100.00;96870.84;4963736;28;20050;-58
2022/04/20 04:07:00;;;;;;;146.25;42.88;;;;;;;0.93;100.00;96846.75;4964963;28;20061;-64
2022/04/20 04:09:26;;;;;;;123.57;40.72;;;;;;;1.14;100.00;96861.44;4965175;28;20062;-63
2022/04/20 04:11:53;;;;;;;76.47;28.67;;;;;;;0.98;100.00;96819.38;4963463;28;20445;-59
2022/04/20 04:14:20;;;;;;;52.50;21.10;;;;;;;1.28;99.61;96862.94;4963712;28;20057;-62
2022/04/20 04:16:47;;;;;;;45.22;19.52;;;;;;;1.20;99.25;96844.63;4995898;28;20085;-62
2022/04/20 04:19:14;;;;;;;49.75;21.75;;;;;;;1.33;98.47;96859.28;4965488;28;20066;-59
2022/04/20 04:21:40;;;;;;;46.97;23.27;;;;;;;1.37;98.13;96844.72;4963898;28;20628;-59
2022/04/20 04:24:08;;;;;;;43.83;21.90;;;;;;;1.52;97.66;96849.72;4963994;28;20402;-59
2022/04/20 04:26:35;;;;;;;56.28;25.60;;;;;;;1.55;97.03;96853.72;4964869;28;20059;-61
2022/04/20 04:29:02;;;;;;;72.75;29.42;;;;;;;1.65;96.80;96850.72;4965102;28;20051;-58
2022/04/20 04:31:30;;;;;;;61.22;26.77;;;;;;;1.19;95.53;96771.28;4963294;28;20261;-60
2022/04/20 04:33:57;;;;;;;41.97;18.65;;;;;;;1.52;95.93;96803.31;4975025;28;20492;-59
2022/04/20 04:36:23;;;;;;;37.97;16.40;;;;;;;0.95;95.73;96695.38;4984526;28;20050;-59
2022/04/20 04:38:50;;;;;;;32.13;14.18;;;;;;;1.97;95.79;96857.66;4982877;28;20568;-62
2022/04/20 04:41:17;;;;;;;32.40;14.75;;;;;;;1.72;96.57;96831.13;4984106;28;20050;-61
2022/04/20 04:43:44;;;;;;;24.92;12.73;;;;;;;2.12;96.87;96854.47;4982438;28;20057;-63
2022/04/20 04:48:56;;;;;;;27.23;11.77;;;;;;;2.33;95.42;96860.88;4988330;28;20137;-61
2022/04/20 04:51:22;;;;;;;23.52;11.43;;;;;;;1.90;96.21;96769.97;4988024;28;20054;-61
2022/04/20 04:53:49;;;;;;;25.45;12.73;;;;;;;2.78;95.40;96867.59;4983262;28;20445;-58
2022/04/20 04:56:16;;;;;;;22.35;10.68;;;;;;;3.08;93.30;96861.09;4968418;28;20062;-62
2022/04/20 04:58:42;;;;;;;15.77;8.40;;;;;;;2.89;92.30;96808.69;4968158;28;20050;-61
2022/04/20 05:01:09;;;;;;;18.35;8.82;;;;;;;3.49;90.85;96861.25;4967040;28;20065;-61
2022/04/20 05:03:36;;;;;;;16.45;8.93;;;;;;;3.63;89.34;96850.06;4968236;28;20063;-59
2022/04/20 05:06:02;;;;;;;20.08;9.55;;;;;;;3.80;88.16;96839.81;4967319;28;20047;-60
2022/04/20 05:08:29;;;;;;;19.50;8.10;;;;;;;3.90;84.11;96822.19;4967213;28;20055;-59
2022/04/20 05:10:56;;;;;;;13.75;6.40;;;;;;;4.05;85.94;96868.97;4968438;28;20077;-62
2022/04/20 05:13:22;;;;;;;11.45;5.93;;;;;;;4.23;84.32;96869.66;4968710;28;20058;-58
2022/04/20 05:15:49;;;;;;;16.60;7.22;;;;;;;3.32;84.75;96710.78;4968281;28;20536;-61
2022/04/20 05:18:16;;;;;;;18.73;9.15;;;;;;;3.79;85.93;96764.25;4967217;28;20136;-59
2022/04/20 05:20:42;;;;;;;24.27;10.65;;;;;;;4.62;84.36;96867.25;4968029;28;20496;-60
2022/04/20 05:23:09;;;;;;;28.45;11.35;;;;;;;4.85;84.99;96859.44;4967989;28;20070;-59
2022/04/20 05:25:35;;;;;;;25.52;12.35;;;;;;;4.97;83.07;96842.19;4966671;28;20059;-62
2022/04/20 05:28:06;;;;;;;23.33;12.57;;;;;;;5.24;82.63;96855.31;4967998;28;20066;-59
2022/04/20 05:30:33;;;;;;;20.30;12.30;;;;;;;5.36;83.12;96869.06;4967887;28;20164;-60
2022/04/20 05:32:59;;;;;;;15.57;9.45;;;;;;;5.53;81.94;96841.41;4969216;28;20059;-62
2022/04/20 05:35:26;;;;;;;16.67;8.48;;;;;;;5.54;80.22;96827.31;4987166;28;20050;-59
2022/04/20 05:43:23;;;;;;;18.63;9.10;;;;;;;6.23;78.80;96827.13;4987182;28;20070;-63
2022/04/20 05:45:51;;;;;;;17.40;9.60;;;;;;;5.71;77.05;96783.13;4987208;28;20096;-62
2022/04/20 05:48:24;;;;;;;15.98;9.38;;;;;;;5.97;78.17;96769.03;4985581;28;20082;-60
2022/04/20 05:50:51;;;;;;;14.80;9.73;;;;;;;5.35;80.05;96763.09;4985212;28;20057;-59
2022/04/20 05:53:17;;;;;;;17.52;7.03;;;;;;;5.42;81.01;96791.59;4985768;28;20058;-59
2022/04/20 05:55:44;;;;;;;8.40;5.30;;;;;;;5.29;83.41;96830.38;4985978;28;20427;-59
2022/04/20 05:58:11;;;;;;;15.07;7.32;;;;;;;5.61;82.66;96837.75;4985465;28;20062;-61
2022/04/20 06:00:37;;;;;;;9.52;5.20;;;;;;;5.79;79.88;96768.44;4985310;28;20073;-63
2022/04/20 06:03:04;;;;;;;13.02;6.72;;;;;;;6.36;78.27;96831.47;4986296;28;20054;-62
2022/04/20 06:05:31;;;;;;;10.90;5.78;;;;;;;6.59;77.07;96835.28;4970193;28;20556;-62
2022/04/20 06:07:58;;;;;;;12.60;6.18;;;;;;;7.04;75.61;96813.75;4966683;28;20050;-59
2022/04/20 06:10:25;;;;;;;12.50;7.15;;;;;;;7.41;74.61;96812.34;4966687;28;20552;-60
2022/04/20 06:12:51;;;;;;;9.15;6.10;;;;;;;7.46;74.10;96803.03;4965806;28;20055;-64
2022/04/20 06:15:18;;;;;;;12.95;6.45;;;;;;;7.04;73.31;96753.16;4966936;28;20058;-60
2022/04/20 06:17:45;;;;;;;12.48;6.90;;;;;;;1.50;73.66;95845.09;4965095;28;20062;-61
2022/04/20 06:20:11;;;;;;;12.05;7.03;;;;;;;7.86;72.90;96800.03;4963638;28;20050;-59
2022/04/20 06:22:38;;;;;;;11.70;6.80;;;;;;;8.13;72.85;96796.31;4969770;28;20552;-61
2022/04/20 06:25:05;;;;;;;14.10;8.18;;;;;;;7.96;71.67;96760.88;4968557;28;20058;-59
2022/04/20 06:27:32;;;;;;;12.00;6.60;;;;;;;8.14;70.22;96767.59;4968400;28;20091;-58
2022/04/20 06:29:59;;;;;;;9.65;6.30;;;;;;;8.00;70.24;96692.81;4963788;28;20329;-60
2022/04/20 06:32:27;;;;;;;11.30;5.97;;;;;;;8.95;67.63;96794.91;4963138;28;20521;-60
2022/04/20 06:34:57;;;;;;;9.60;5.90;;;;;;;8.63;65.88;96741.06;4965867;28;20058;-59
2022/04/20 06:37:24;;;;;;;16.15;9.90;;;;;;;8.95;66.82;96747.94;4965709;28;21518;-64
2022/04/20 06:39:51;;;;;;;11.35;6.80;;;;;;;9.04;63.33;96773.41;4977016;28;20064;-60
2022/04/20 06:42:21;;;;;;;9.85;6.65;;;;;;;8.48;65.87;96794.34;4963930;28;20065;-62
2022/04/20 06:44:48;;;;;;;12.07;6.57;;;;;;;7.95;67.38;96814.44;4965231;28;20057;-61
2022/04/20 06:47:14;;;;;;;11.15;6.95;;;;;;;8.05;69.35;96806.41;4964897;28;20063;-57
2022/04/20 06:49:42;;;;;;;8.85;5.82;;;;;;;8.45;68.55;96773.00;4965554;28;20062;-60
2022/04/20 07:00:25;;;;;;;12.07;7.55;;;;;;;8.88;67.95;96797.56;4984548;28;20066;-64
2022/04/20 07:03:03;;;;;;;12.07;6.60;;;;;;;9.01;67.61;96774.09;4982667;28;20065;-62
2022/04/20 07:05:30;;;;;;;12.57;6.68;;;;;;;8.79;68.30;96794.19;4984277;28;20082;-60
2022/04/20 07:08:03;;;;;;;9.73;6.95;;;;;;;9.14;67.46;96844.59;4984311;28;20526;-62
2022/04/20 07:10:31;;;;;;;13.88;6.78;;;;;;;9.05;66.75;96744.59;4984813;28;20050;-61
2022/04/20 07:12:58;;;;;;;11.82;7.40;;;;;;;8.98;66.27;96725.94;4984909;28;20046;-59
2022/04/20 07:15:25;;;;;;;12.52;6.18;;;;;;;9.23;66.80;96804.53;4997617;28;20057;-60
2022/04/20 07:17:51;;;;;;;9.95;5.90;;;;;;;9.38;66.37;96794.53;5003516;28;20405;-64
2022/04/20 07:20:18;;;;;;;10.10;5.65;;;;;;;9.04;68.26;96795.50;4985964;28;20069;-62
2022/04/20 07:22:49;;;;;;;12.82;6.10;;;;;;;9.38;66.25;96800.06;4972785;28;20057;-63
2022/04/20 07:25:17;;;;;;;10.90;5.63;;;;;;;9.52;65.99;96799.50;4976167;28;20055;-61
2022/04/20 07:27:48;;;;;;;10.43;6.10;;;;;;;9.14;66.22;96736.84;4974209;28;20058;-62
2022/04/20 07:30:16;;;;;;;12.88;6.60;;;;;;;8.06;69.47;96694.13;4982846;28;20136;-60
2022/04/20 07:32:43;;;;;;;15.68;7.72;;;;;;;8.30;68.97;96688.34;4982525;28;20452;-61
2022/04/20 07:35:10;;;;;;;18.30;7.63;;;;;;;8.41;68.99;96653.47;4979851;28;20054;-60
2022/04/20 07:37:37;;;;;;;14.40;8.27;;;;;;;9.55;68.78;96777.44;4973650;28;20513;-59
2022/04/20 07:40:05;;;;;;;15.38;7.78;;;;;;;9.48;67.94;96710.97;4977213;28;20050;-59
2022/04/20 07:42:32;;;;;;;12.02;6.18;;;;;;;8.08;64.44;96462.88;4984530;28;20058;-61
2022/04/20 07:44:59;;;;;;;12.73;7.15;;;;;;;9.16;67.22;96762.16;4983831;28;20458;-60
2022/04/20 07:47:28;;;;;;;12.23;6.10;;;;;;;9.78;68.22;96756.09;4983030;28;20133;-60
2022/04/20 07:52:42;;;;;;;8.23;5.53;;;;;;;11.12;62.73;96749.50;4983175;28;20061;-61
2022/04/20 07:55:32;;;;;;;8.90;5.75;;;;;;;10.81;61.09;96766.59;4983172;28;20065;-60
2022/04/20 07:58:01;;;;;;;10.10;5.13;;;;;;;10.11;64.13;96750.69;4983727;28;20057;-60
2022/04/20 08:00:28;;;;;;;8.43;6.43;;;;;;;9.56;65.87;96640.81;4983335;28;20057;-61
2022/04/20 08:03:10;;;;;;;10.20;6.00;;;;;;;10.94;63.37;96743.00;4984230;28;20064;-61
2022/04/20 08:05:37;;;;;;;11.90;6.35;;;;;;;11.56;62.36;96742.00;4981818;28;20050;-63
2022/04/20 08:08:06;;;;;;;9.18;5.90;;;;;;;11.88;59.92;96732.78;4983258;28;20058;-61
2022/04/20 08:10:33;;;;;;;10.20;5.28;;;;;;;10.03;58.75;96411.38;4981877;28;20050;-61
2022/04/20 08:13:00;;;;;;;6.68;5.05;;;;;;;10.87;56.57;96504.63;4973291;28;20056;-61
2022/04/20 08:15:26;;;;;;;6.32;5.03;;;;;;;12.22;58.09;96750.00;4983142;28;20053;-61
2022/04/20 08:17:53;;;;;;;9.90;6.07;;;;;;;12.31;57.99;96755.22;4982731;28;20057;-60
2022/04/20 08:20:20;;;;;;;13.88;10.38;;;;;;;12.37;57.53;96748.13;4980663;28;20426;-58
2022/04/20 08:22:46;;;;;;;8.63;5.88;;;;;;;12.15;58.13;96766.66;4981572;28;20140;-59
2022/04/20 08:25:13;;;;;;;8.93;5.47;;;;;;;12.39;58.61;96752.13;4984203;28;20058;-62
2022/04/20 08:27:40;;;;;;;9.18;6.18;;;;;;;12.32;58.15;96717.94;4983783;28;20054;-65
2022/04/20 08:30:08;;;;;;;8.73;4.80;;;;;;;11.64;57.79;96718.69;4982383;28;20050;-63
2022/04/20 08:32:35;;;;;;;8.63;5.35;;;;;;;11.97;57.38;96746.28;4983666;28;20058;-62
2022/04/20 08:35:02;;;;;;;8.98;5.80;;;;;;;12.07;57.42;96751.94;4982777;28;20057;-57
2022/04/20 08:37:29;;;;;;;7.75;5.28;;;;;;;12.07;56.75;96706.72;4984244;28;20081;-63
2022/04/20 08:39:56;;;;;;;9.88;6.35;;;;;;;11.96;56.80;96664.22;4982184;28;20046;-63
2022/04/20 08:42:22;;;;;;;12.30;7.43;;;;;;;11.95;56.24;96643.16;4983574;28;20054;-59
2022/04/20 08:44:51;;;;;;;13.48;8.00;;;;;;;12.65;56.43;96749.06;4970641;28;20049;-58
2022/04/20 08:47:23;;;;;;;5.72;5.07;;;;;;;12.63;54.98;96718.06;4973330;28;20520;-59
2022/04/20 08:49:51;;;;;;;7.10;5.97;;;;;;;12.60;54.76;96671.63;4956192;28;20085;-60
2022/04/20 08:52:37;;;;;;;12.00;6.55;;;;;;;12.65;56.77;96749.06;4979288;28;20054;-58
2022/04/20 08:55:10;;;;;;;9.05;5.32;;;;;;;12.60;55.23;96749.41;4978486;28;20046;-64
2022/04/20 08:57:38;;;;;;;12.20;6.30;;;;;;;12.49;54.91;96706.13;4983397;28;20501;-56
2022/04/20 09:00:09;;;;;;;4.72;4.22;;;;;;;11.64;54.76;96760.31;4983963;28;20055;-62
2022/04/20 09:02:36;;;;;;;9.00;5.55;;;;;;;12.26;55.74;96756.41;4981689;28;20054;-61
2022/04/20 09:05:04;;;;;;;7.28;4.90;;;;;;;12.51;52.86;96735.09;4983533;28;20509;-61
2022/04/20 09:07:31;;;;;;;7.05;5.55;;;;;;;12.56;55.38;96751.41;4982141;28;20529;-61
2022/04/20 09:10:00;;;;;;;7.18;5.30;;;;;;;12.89;54.94;96755.88;4982831;28;20452;-60
2022/04/20 09:12:28;;;;;;;8.90;6.47;;;;;;;12.38;56.68;96666.41;4983172;28;20548;-58
2022/04/20 09:14:56;;;;;;;8.77;6.63;;;;;;;11.74;57.76;96532.09;4991117;28;20042;-58
2022/04/20 09:17:26;;;;;;;7.50;5.43;;;;;;;12.91;58.30;96720.97;5003413;28;20061;-62
2022/04/20 09:19:55;;;;;;;6.88;4.75;;;;;;;12.14;60.07;96667.84;5002912;28;20069;-59
2022/04/20 09:22:27;;;;;;;7.50;5.57;;;;;;;12.38;60.02;96761.63;5003099;28;20054;-59
2022/04/20 09:25:14;;;;;;;6.53;5.50;;;;;;;11.25;60.35;96664.88;5002928;28;20056;-58
2022/04/20 09:27:42;;;;;;;9.85;7.13;;;;;;;11.61;61.97;96772.97;5002977;28;20746;-58
2022/04/20 09:30:13;;;;;;;11.73;7.13;;;;;;;10.88;64.38;96777.75;4993717;28;20050;-64
2022/04/20 09:32:42;;;;;;;11.15;7.65;;;;;;;10.12;68.20;96763.34;4984585;28;20060;-58
2022/04/20 09:35:14;;;;;;;10.70;7.55;;;;;;;9.88;71.49;96777.56;4986566;28;20536;-61
2022/04/20 09:37:43;;;;;;;12.45;8.18;;;;;;;9.04;72.78;96596.59;4987404;28;20282;-60
2022/04/20 09:40:12;;;;;;;12.82;8.80;;;;;;;9.75;72.38;96717.31;4986309;28;20521;-59
2022/04/20 09:43:04;;;;;;;13.65;8.70;;;;;;;9.62;75.82;96749.91;4987440;28;20058;-60
2022/04/20 09:45:31;;;;;;;16.83;10.05;;;;;;;9.62;79.67;96755.44;4986400;28;20356;-62
2022/04/20 09:50:43;;;;;;;11.15;8.40;;;;;;;9.42;79.39;96756.69;4986714;28;20050;-63
2022/04/20 09:53:12;;;;;;;12.50;8.30;;;;;;;9.32;83.81;96751.78;4986332;28;20050;-63
2022/04/20 09:55:40;;;;;;;11.30;6.95;;;;;;;9.18;77.68;96752.31;4985042;28;20140;-62
2022/04/20 09:58:21;;;;;;;11.20;7.80;;;;;;;9.11;84.93;96748.66;4985320;28;20054;-62
2022/04/20 10:00:51;;;;;;;13.93;9.57;;;;;;;9.07;84.29;96745.03;4985390;28;20367;-62
2022/04/20 10:03:29;;;;;;;13.57;9.05;;;;;;;8.92;84.33;96743.16;4986785;28;20058;-60
2022/04/20 10:05:57;;;;;;;12.18;8.48;;;;;;;8.72;85.25;96722.28;4986589;28;20050;-63
2022/04/20 10:08:24;;;;;;;8.88;6.97;;;;;;;8.54;85.81;96704.56;4986033;28;20054;-63
2022/04/20 10:10:53;;;;;;;10.45;7.78;;;;;;;8.80;85.63;96729.53;4986245;28;20057;-61
2022/04/20 10:13:21;;;;;;;13.63;7.72;;;;;;;8.79;89.95;96736.22;4985840;28;20087;-61
2022/04/20 10:16:05;;;;;;;10.23;7.22;;;;;;;8.95;87.34;96720.31;4992357;28;20046;-65
2022/04/20 10:18:38;;;;;;;9.48;6.43;;;;;;;6.65;84.95;96377.09;4984329;28;20137;-60
2022/04/20 10:21:11;;;;;;;12.23;7.80;;;;;;;8.79;86.96;96684.53;4981666;28;20153;-65
2022/04/20 10:23:47;;;;;;;13.33;7.70;;;;;;;9.11;86.16;96701.66;4983023;28;20459;-61
2022/04/20 10:26:17;;;;;;;10.98;8.10;;;;;;;8.81;88.60;96645.50;4983201;28;20042;-63
2022/04/20 10:29:00;;;;;;;11.65;7.90;;;;;;;8.99;91.14;96660.44;4984433;28;20061;-60
2022/04/20 10:31:41;;;;;;;10.82;7.05;;;;;;;8.88;83.27;96698.91;4975437;28;20433;-60
2022/04/20 10:34:13;;;;;;;11.05;7.05;;;;;;;8.74;85.26;96673.03;4983636;28;20130;-64
2022/04/20 10:36:40;;;;;;;10.70;6.82;;;;;;;8.88;86.81;96709.16;4985808;28;20137;-64
2022/04/20 10:39:22;;;;;;;12.85;8.30;;;;;;;8.68;88.20;96704.84;4984719;28;20440;-59
2022/04/20 10:42:19;;;;;;;9.43;6.25;;;;;;;8.20;88.60;96699.94;4985597;28;20476;-64
2022/04/20 10:44:55;;;;;;;12.13;7.95;;;;;;;8.76;90.38;96698.28;4985086;28;20062;-61
2022/04/20 10:47:31;;;;;;;9.18;6.35;;;;;;;8.97;83.07;96701.44;4985451;28;20058;-59
2022/04/20 10:50:21;;;;;;;11.38;6.85;;;;;;;9.06;82.35;96685.41;4985154;28;20150;-65
2022/04/20 10:52:56;;;;;;;10.32;6.72;;;;;;;9.02;83.39;96659.69;4985619;28;20613;-60
2022/04/20 10:55:29;;;;;;;11.63;7.55;;;;;;;9.19;82.52;96675.75;4985912;28;20069;-65
2022/04/20 10:57:56;;;;;;;10.10;7.57;;;;;;;9.04;85.80;96629.75;4985670;28;20061;-59
2022/04/20 11:00:25;;;;;;;11.50;7.93;;;;;;;9.63;85.06;96674.06;4985033;28;20792;-64
2022/04/20 11:03:03;;;;;;;10.63;7.57;;;;;;;9.12;84.82;96584.44;4985105;28;20098;-66
2022/04/20 11:05:31;;;;;;;11.25;7.43;;;;;;;9.34;83.70;96638.91;4985046;28;20061;-60
2022/04/20 11:08:12;;;;;;;18.50;10.75;;;;;;;9.88;90.44;96652.31;4984965;28;20062;-64
2022/04/20 11:19:32;;;;;;;20.85;11.02;;;;;;;9.69;88.50;96608.97;4965885;28;20055;-60
2022/04/20 11:22:08;;;;;;;19.35;11.75;;;;;;;9.91;90.42;96657.84;4964322;28;20054;-60
2022/04/20 11:24:40;;;;;;;21.60;14.57;;;;;;;9.73;90.26;96637.47;4979934;28;20050;-64
2022/04/20 11:27:08;;;;;;;17.10;9.65;;;;;;;9.34;88.21;96655.47;4964315;28;20068;-59
2022/04/20 11:29:35;;;;;;;14.75;8.82;;;;;;;7.95;95.78;96615.88;4965274;28;20062;-66
2022/04/20 11:32:04;;;;;;;19.27;11.65;;;;;;;7.45;100.00;96542.41;4965521;28;20433;-62
2022/04/20 11:34:33;;;;;;;21.65;12.43;;;;;;;7.66;100.00;96609.00;4978964;28;21093;-58
2022/04/20 11:37:01;;;;;;;19.67;11.80;;;;;;;6.86;100.00;96515.16;4991866;28;20057;-61
2022/04/20 11:39:29;;;;;;;23.40;12.32;;;;;;;7.83;100.00;96654.63;4983062;28;20058;-66
2022/04/20 11:41:57;;;;;;;21.70;11.63;;;;;;;7.74;100.00;96652.88;4983241;28;20050;-60
2022/04/20 11:44:34;;;;;;;18.98;11.20;;;;;;;7.64;100.00;96645.19;4983354;28;20058;-61
2022/04/20 11:47:07;;;;;;;23.42;13.20;;;;;;;6.93;100.00;96586.91;4978411;28;20053;-61
2022/04/20 11:49:44;;;;;;;23.03;13.60;;;;;;;7.43;100.00;96633.69;4981189;28;20051;-67
2022/04/20 11:52:14;;;;;;;17.45;10.98;;;;;;;7.02;100.00;96595.75;4979392;28;20051;-62
2022/04/20 11:54:48;;;;;;;21.60;11.45;;;;;;;7.36;100.00;96639.06;4972759;28;20047;-59
2022/04/20 11:57:16;;;;;;;19.52;11.57;;;;;;;7.30;100.00;96607.41;4982440;28;20061;-60
2022/04/20 11:59:45;;;;;;;22.00;12.73;;;;;;;7.52;100.00;96625.22;4983441;28;20053;-60
2022/04/20 12:02:15;;;;;;;24.35;13.90;;;;;;;7.42;100.00;96625.78;4983404;28;20062;-60
2022/04/20 12:04:44;;;;;;;28.33;14.25;;;;;;;7.54;100.00;96614.63;4965988;28;20069;-61
2022/04/20 12:07:11;;;;;;;20.45;11.52;;;;;;;7.65;100.00;96624.72;4985498;28;20142;-66